createdAt,value
2023-04-09T00:01:14.594Z,10.40
2023-04-09T00:03:41.464Z,10.40
2023-04-09T00:06:08.199Z,10.30
2023-04-09T00:08:37.326Z,10.30
2023-04-09T00:11:04.340Z,10.30
2023-04-09T00:13:39.365Z,10.30
2023-04-09T00:16:07.611Z,10.30
2023-04-09T00:18:34.444Z,10.30
2023-04-09T00:21:01.203Z,10.30
2023-04-09T00:23:30.629Z,10.20
2023-04-09T00:25:57.371Z,10.20
2023-04-09T00:28:23.988Z,10.20
2023-04-09T00:30:53.234Z,10.20
2023-04-09T00:33:19.945Z,10.20
2023-04-09T00:35:49.067Z,10.10
2023-04-09T00:38:16.348Z,10.10
2023-04-09T00:40:45.856Z,10.10
2023-04-09T00:43:12.523Z,10.10
2023-04-09T00:45:41.684Z,10.10
2023-04-09T00:48:08.668Z,10.10
2023-04-09T00:50:37.762Z,10.00
2023-04-09T00:53:07.586Z,10.00
2023-04-09T00:55:34.850Z,10.00
2023-04-09T00:58:02.100Z,10.00
2023-04-09T01:00:28.927Z,9.90
2023-04-09T01:02:58.822Z,9.90
2023-04-09T01:05:34.227Z,9.90
2023-04-09T01:08:28.367Z,9.90
2023-04-09T01:11:28.776Z,9.90
2023-04-09T01:14:06.423Z,9.90
2023-04-09T01:16:36.912Z,9.80
2023-04-09T01:19:12.758Z,9.80
2023-04-09T01:21:41.316Z,9.80
2023-04-09T01:24:39.248Z,9.80
2023-04-09T01:27:07.782Z,9.70
2023-04-09T01:29:39.386Z,9.70
2023-04-09T01:32:10.466Z,9.70
2023-04-09T01:34:38.982Z,9.60
2023-04-09T01:37:09.391Z,9.60
2023-04-09T01:39:42.043Z,9.60
2023-04-09T01:42:12.141Z,9.60
2023-04-09T01:44:41.523Z,9.50
2023-04-09T01:47:09.407Z,9.40
2023-04-09T01:49:37.570Z,9.40
2023-04-09T01:52:07.463Z,9.40
2023-04-09T01:54:34.114Z,9.40
2023-04-09T01:57:01.225Z,9.30
2023-04-09T01:59:27.898Z,9.30
2023-04-09T02:02:00.010Z,9.30
2023-04-09T02:04:34.200Z,9.30
2023-04-09T02:07:12.711Z,9.20
2023-04-09T02:09:42.932Z,9.20
2023-04-09T02:12:14.376Z,9.20
2023-04-09T02:14:42.578Z,9.20
2023-04-09T02:17:11.606Z,9.20
2023-04-09T02:19:43.594Z,9.20
2023-04-09T02:22:10.839Z,9.20
2023-04-09T02:24:37.919Z,9.20
2023-04-09T02:27:06.016Z,9.20
2023-04-09T02:29:35.181Z,9.10
2023-04-09T02:32:04.238Z,9.10
2023-04-09T02:34:31.072Z,9.10
2023-04-09T02:36:57.721Z,9.10
2023-04-09T02:39:24.495Z,9.10
2023-04-09T02:41:51.108Z,9.10
2023-04-09T02:44:17.801Z,9.10
2023-04-09T02:46:46.961Z,9.10
2023-04-09T02:49:15.986Z,9.10
2023-04-09T02:51:42.652Z,9.10
2023-04-09T02:54:11.472Z,9.10
2023-04-09T02:56:38.216Z,9.00
2023-04-09T02:59:04.906Z,9.00
2023-04-09T03:01:31.669Z,9.00
2023-04-09T03:04:01.539Z,9.00
2023-04-09T03:06:30.761Z,9.00
2023-04-09T03:08:57.443Z,9.10
2023-04-09T03:11:24.176Z,9.00
2023-04-09T03:13:50.871Z,9.00
2023-04-09T03:16:17.592Z,9.00
2023-04-09T03:18:51.714Z,9.00
2023-04-09T03:21:18.593Z,9.00
2023-04-09T03:23:45.258Z,9.00
2023-04-09T03:26:11.931Z,9.00
2023-04-09T03:28:43.026Z,9.00
2023-04-09T03:31:09.702Z,8.90
2023-04-09T03:33:36.480Z,8.90
2023-04-09T03:36:03.405Z,8.90
2023-04-09T03:38:30.277Z,8.90
2023-04-09T03:40:57.095Z,8.90
2023-04-09T03:43:23.749Z,8.80
2023-04-09T03:45:50.404Z,8.80
2023-04-09T03:48:17.039Z,8.80
2023-04-09T03:50:46.166Z,8.80
2023-04-09T03:53:12.794Z,8.80
2023-04-09T03:55:41.792Z,8.70
2023-04-09T03:58:08.445Z,8.70
2023-04-09T04:00:35.072Z,8.70
2023-04-09T04:03:01.988Z,8.60
2023-04-09T04:05:28.797Z,8.60
2023-04-09T04:07:57.933Z,8.60
2023-04-09T04:10:24.528Z,8.60
2023-04-09T04:12:51.210Z,8.60
2023-04-09T04:15:19.668Z,8.60
2023-04-09T04:17:46.477Z,8.50
2023-04-09T04:20:13.312Z,8.50
2023-04-09T04:22:45.059Z,8.50
2023-04-09T04:25:14.252Z,8.50
2023-04-09T04:27:43.736Z,8.50
2023-04-09T04:30:12.994Z,8.50
2023-04-09T04:32:39.679Z,8.40
2023-04-09T04:35:06.620Z,8.40
2023-04-09T04:37:35.493Z,8.40
2023-04-09T04:40:02.986Z,8.40
2023-04-09T04:42:29.717Z,8.40
2023-04-09T04:44:58.986Z,8.40
2023-04-09T04:47:28.436Z,8.40
2023-04-09T04:49:57.610Z,8.40
2023-04-09T04:52:24.300Z,8.40
2023-04-09T04:54:53.457Z,8.40
2023-04-09T04:57:24.803Z,8.30
2023-04-09T04:59:53.793Z,8.30
2023-04-09T05:02:20.751Z,8.30
2023-04-09T05:04:47.511Z,8.30
2023-04-09T05:07:14.145Z,8.30
2023-04-09T05:09:42.789Z,8.20
2023-04-09T05:12:09.454Z,8.30
2023-04-09T05:14:38.573Z,8.30
2023-04-09T05:17:05.288Z,8.30
2023-04-09T05:19:32.005Z,8.20
2023-04-09T05:22:00.879Z,8.30
2023-04-09T05:24:27.470Z,8.30
2023-04-09T05:26:54.109Z,8.20
2023-04-09T05:29:21.075Z,8.30
2023-04-09T05:31:47.767Z,8.30
2023-04-09T05:34:16.647Z,8.30
2023-04-09T05:36:43.347Z,8.30
2023-04-09T05:39:10.012Z,8.30
2023-04-09T05:41:38.467Z,8.40
2023-04-09T05:44:07.666Z,8.40
2023-04-09T05:46:36.809Z,8.40
2023-04-09T05:49:03.522Z,8.40
2023-04-09T05:51:30.368Z,8.50
2023-04-09T05:53:57.017Z,8.50
2023-04-09T05:56:27.963Z,8.50
2023-04-09T05:58:56.970Z,8.60
2023-04-09T06:01:27.092Z,8.70
2023-04-09T06:03:58.325Z,8.80
2023-04-09T06:06:27.989Z,8.90
2023-04-09T06:08:54.781Z,9.00
2023-04-09T06:11:24.249Z,9.10
2023-04-09T06:13:51.825Z,9.20
2023-04-09T06:16:21.087Z,9.20
2023-04-09T06:18:49.678Z,9.30
2023-04-09T06:21:16.533Z,9.30
2023-04-09T06:23:43.332Z,9.40
2023-04-09T06:26:12.127Z,9.40
2023-04-09T06:28:38.764Z,9.50
2023-04-09T06:31:05.730Z,9.60
2023-04-09T06:33:32.439Z,9.70
2023-04-09T06:35:59.276Z,9.70
2023-04-09T06:38:26.091Z,9.80
2023-04-09T06:40:52.806Z,9.90
2023-04-09T06:43:19.468Z,10.00
2023-04-09T06:45:46.394Z,10.10
2023-04-09T06:48:13.041Z,10.20
2023-04-09T06:50:39.718Z,10.20
2023-04-09T06:53:09.317Z,10.30
2023-04-09T06:55:36.128Z,10.30
2023-04-09T06:58:03.262Z,10.40
2023-04-09T07:00:32.092Z,10.50
2023-04-09T07:03:01.390Z,10.60
2023-04-09T07:05:28.203Z,10.70
2023-04-09T07:07:57.097Z,10.80
2023-04-09T07:10:26.112Z,10.90
2023-04-09T07:12:52.927Z,10.90
2023-04-09T07:15:19.706Z,11.00
2023-04-09T07:17:46.387Z,11.10
2023-04-09T07:20:17.810Z,11.20
2023-04-09T07:22:44.460Z,11.20
2023-04-09T07:25:11.263Z,11.10
2023-04-09T07:27:38.069Z,11.00
2023-04-09T07:30:05.317Z,10.90
2023-04-09T07:32:32.110Z,10.80
2023-04-09T07:34:59.457Z,10.80
2023-04-09T07:37:28.757Z,10.90
2023-04-09T07:39:55.558Z,10.90
2023-04-09T07:42:22.392Z,11.00
2023-04-09T07:44:49.379Z,11.00
2023-04-09T07:47:18.511Z,11.20
2023-04-09T07:49:45.108Z,11.40
2023-04-09T07:52:14.670Z,11.60
2023-04-09T07:54:41.524Z,11.90
2023-04-09T07:57:10.896Z,12.10
2023-04-09T07:59:37.916Z,12.30
2023-04-09T08:02:04.739Z,12.40
2023-04-09T08:04:31.761Z,12.50
2023-04-09T08:06:58.750Z,12.60
2023-04-09T08:09:25.615Z,12.80
2023-04-09T08:11:53.252Z,12.80
2023-04-09T08:14:19.918Z,13.00
2023-04-09T08:16:47.931Z,13.10
2023-04-09T08:19:16.904Z,13.10
2023-04-09T08:21:44.136Z,13.10
2023-04-09T08:24:11.814Z,13.30
2023-04-09T08:26:42.623Z,13.30
2023-04-09T08:29:14.686Z,13.50
2023-04-09T08:31:44.389Z,13.60
2023-04-09T08:34:15.979Z,13.70
2023-04-09T08:36:45.747Z,13.80
2023-04-09T08:39:14.874Z,14.00
2023-04-09T08:41:45.762Z,14.00
2023-04-09T08:44:12.392Z,14.20
2023-04-09T08:46:39.096Z,14.10
2023-04-09T08:49:05.935Z,14.10
2023-04-09T08:51:32.606Z,14.20
2023-04-09T08:54:03.722Z,14.40
2023-04-09T08:56:31.328Z,14.50
2023-04-09T08:59:00.371Z,14.70
2023-04-09T09:01:29.418Z,14.80
2023-04-09T09:03:57.682Z,14.50
2023-04-09T09:06:27.913Z,14.10
2023-04-09T09:09:15.769Z,14.10
2023-04-09T09:11:44.553Z,14.50
2023-04-09T09:14:16.258Z,14.80
2023-04-09T09:17:04.785Z,15.20
2023-04-09T09:19:37.194Z,15.40
2023-04-09T09:22:06.479Z,15.70
2023-04-09T09:24:34.422Z,15.70
2023-04-09T09:27:03.974Z,15.90
2023-04-09T09:29:31.689Z,16.10
2023-04-09T09:31:58.337Z,16.30
2023-04-09T09:34:27.686Z,16.50
2023-04-09T09:36:56.609Z,16.80
2023-04-09T09:39:23.276Z,17.00
2023-04-09T09:42:08.088Z,17.10
2023-04-09T09:44:34.799Z,17.20
2023-04-09T09:47:03.858Z,17.30
2023-04-09T09:49:35.282Z,17.40
2023-04-09T09:52:04.431Z,17.40
2023-04-09T09:54:38.297Z,17.20
2023-04-09T09:57:07.419Z,17.10
2023-04-09T09:59:38.433Z,17.20
2023-04-09T10:02:07.436Z,17.40
2023-04-09T10:04:37.937Z,17.50
2023-04-09T10:07:06.989Z,17.50
2023-04-09T10:09:40.975Z,17.70
2023-04-09T10:12:11.784Z,17.90
2023-04-09T10:14:39.655Z,18.10
2023-04-09T10:17:06.889Z,18.10
2023-04-09T10:19:40.338Z,18.10
2023-04-09T10:22:13.707Z,17.90
2023-04-09T10:24:41.138Z,17.90
2023-04-09T10:27:12.537Z,17.80
2023-04-09T10:29:46.597Z,18.00
2023-04-09T10:32:20.896Z,18.20
2023-04-09T10:34:50.881Z,18.30
2023-04-09T10:37:28.520Z,18.10
2023-04-09T10:39:56.487Z,18.00
2023-04-09T10:42:29.282Z,18.00
2023-04-09T10:45:08.244Z,17.90
2023-04-09T10:47:37.298Z,17.80
2023-04-09T10:50:38.110Z,17.90
2023-04-09T10:53:04.987Z,18.00
2023-04-09T10:55:39.763Z,18.00
2023-04-09T10:58:10.496Z,18.00
2023-04-09T11:00:40.970Z,18.10
2023-04-09T11:03:21.795Z,18.20
2023-04-09T11:06:09.126Z,18.50
2023-04-09T11:08:37.858Z,18.70
2023-04-09T11:11:06.849Z,19.00
2023-04-09T11:13:36.251Z,19.30
2023-04-09T11:16:07.140Z,19.60
2023-04-09T11:18:35.516Z,19.90
2023-04-09T11:21:04.379Z,20.10
2023-04-09T11:23:34.171Z,20.30
2023-04-09T11:26:01.945Z,20.30
2023-04-09T11:28:30.965Z,20.40
2023-04-09T11:31:00.187Z,20.40
2023-04-09T11:33:33.323Z,20.30
2023-04-09T11:36:04.907Z,20.20
2023-04-09T11:38:34.199Z,20.10
2023-04-09T11:41:02.088Z,19.90
2023-04-09T11:43:31.277Z,19.70
2023-04-09T11:46:00.640Z,19.50
2023-04-09T11:48:27.378Z,19.30
2023-04-09T11:50:54.166Z,19.10
2023-04-09T11:53:22.646Z,18.90
2023-04-09T11:55:56.255Z,18.60
2023-04-09T11:58:24.658Z,18.40
2023-04-09T12:00:56.210Z,18.20
2023-04-09T12:03:31.153Z,18.10
2023-04-09T12:06:01.541Z,18.00
2023-04-09T12:08:28.557Z,18.00
2023-04-09T12:11:07.112Z,17.90
2023-04-09T12:13:36.146Z,17.90
2023-04-09T12:16:05.632Z,17.80
2023-04-09T12:18:36.515Z,17.60
2023-04-09T12:21:03.223Z,17.50
2023-04-09T12:23:31.447Z,17.50
2023-04-09T12:26:03.786Z,17.50
2023-04-09T12:28:31.223Z,17.60
2023-04-09T12:31:00.037Z,17.40
2023-04-09T12:33:27.145Z,17.40
2023-04-09T12:35:53.924Z,17.40
2023-04-09T12:38:20.839Z,17.30
2023-04-09T12:40:47.612Z,17.30
2023-04-09T12:43:14.395Z,17.30
2023-04-09T12:45:43.335Z,17.20
2023-04-09T12:48:12.444Z,17.20
2023-04-09T12:50:39.137Z,17.30
2023-04-09T12:53:06.072Z,17.30
2023-04-09T12:55:32.949Z,17.20
2023-04-09T12:57:59.600Z,17.20
2023-04-09T13:00:30.727Z,17.10
2023-04-09T13:02:57.582Z,16.90
2023-04-09T13:05:24.442Z,16.80
2023-04-09T13:07:53.550Z,16.80
2023-04-09T13:10:22.696Z,16.70
2023-04-09T13:12:52.393Z,16.70
2023-04-09T13:15:19.197Z,16.70
2023-04-09T13:17:45.940Z,16.80
2023-04-09T13:20:12.902Z,17.00
2023-04-09T13:22:39.557Z,17.30
2023-04-09T13:25:06.696Z,17.70
2023-04-09T13:27:33.371Z,18.10
2023-04-09T13:30:00.073Z,18.30
2023-04-09T13:32:27.059Z,18.40
2023-04-09T13:34:55.301Z,18.50
2023-04-09T13:37:27.245Z,18.50
2023-04-09T13:39:53.879Z,18.60
2023-04-09T13:42:25.775Z,18.60
2023-04-09T13:44:55.130Z,18.60
2023-04-09T13:47:24.164Z,18.70
2023-04-09T13:49:52.893Z,18.90
2023-04-09T13:52:19.626Z,19.10
2023-04-09T13:54:46.393Z,19.30
2023-04-09T13:57:13.227Z,19.30
2023-04-09T13:59:41.647Z,19.50
2023-04-09T14:02:08.908Z,19.80
2023-04-09T14:04:37.907Z,19.90
2023-04-09T14:07:04.625Z,19.80
2023-04-09T14:09:31.924Z,19.80
2023-04-09T14:11:58.574Z,19.80
2023-04-09T14:14:27.573Z,20.00
2023-04-09T14:16:55.274Z,20.10
2023-04-09T14:19:24.472Z,20.00
2023-04-09T14:21:53.172Z,20.10
2023-04-09T14:24:22.905Z,20.20
2023-04-09T14:26:53.277Z,20.20
2023-04-09T14:29:20.973Z,20.20
2023-04-09T14:31:50.483Z,20.20
2023-04-09T14:34:17.257Z,20.20
2023-04-09T14:36:43.864Z,20.20
2023-04-09T14:39:11.212Z,20.20
2023-04-09T14:41:37.886Z,20.30
2023-04-09T14:44:04.572Z,20.30
2023-04-09T14:46:31.493Z,20.20
2023-04-09T14:48:58.283Z,20.20
2023-04-09T14:51:24.959Z,20.10
2023-04-09T14:53:51.676Z,20.10
2023-04-09T14:56:18.380Z,20.10
2023-04-09T14:58:45.236Z,20.10
2023-04-09T15:01:12.305Z,20.20
2023-04-09T15:03:42.168Z,20.20
2023-04-09T15:06:11.969Z,20.20
2023-04-09T15:08:38.685Z,20.20
2023-04-09T15:11:10.285Z,20.20
2023-04-09T15:13:39.099Z,20.30
2023-04-09T15:16:06.576Z,20.40
2023-04-09T15:18:34.096Z,20.40
2023-04-09T15:21:02.977Z,20.50
2023-04-09T15:23:29.656Z,20.60
2023-04-09T15:25:59.063Z,20.60
2023-04-09T15:28:27.919Z,20.40
2023-04-09T15:30:55.371Z,20.30
2023-04-09T15:33:22.073Z,20.30
2023-04-09T15:35:51.156Z,20.40
2023-04-09T15:38:25.150Z,20.10
2023-04-09T15:40:52.762Z,20.10
2023-04-09T15:43:19.608Z,20.30
2023-04-09T15:45:48.570Z,20.30
2023-04-09T15:48:15.678Z,20.50
2023-04-09T15:50:42.391Z,20.90
2023-04-09T15:53:09.148Z,21.70
2023-04-09T15:55:36.122Z,22.60
2023-04-09T15:58:02.976Z,23.50
2023-04-09T16:00:29.774Z,24.20
2023-04-09T16:02:56.491Z,24.50
2023-04-09T16:05:23.393Z,25.10
2023-04-09T16:07:57.595Z,25.60
2023-04-09T16:10:28.204Z,26.20
2023-04-09T16:12:55.301Z,26.60
2023-04-09T16:15:22.033Z,27.10
2023-04-09T16:17:48.831Z,27.60
2023-04-09T16:20:15.649Z,27.90
2023-04-09T16:22:42.826Z,27.90
2023-04-09T16:25:10.220Z,27.50
2023-04-09T16:27:36.866Z,27.10
2023-04-09T16:30:03.846Z,27.50
2023-04-09T16:32:30.680Z,28.00
2023-04-09T16:35:00.825Z,28.10
2023-04-09T16:37:28.056Z,28.40
2023-04-09T16:39:58.200Z,28.40
2023-04-09T16:42:27.422Z,28.40
2023-04-09T16:44:54.395Z,28.40
2023-04-09T16:47:23.355Z,28.40
2023-04-09T16:49:50.294Z,28.40
2023-04-09T16:52:16.988Z,28.50
2023-04-09T16:54:46.233Z,28.70
2023-04-09T16:57:13.002Z,28.60
2023-04-09T16:59:42.907Z,28.20
2023-04-09T17:02:09.866Z,27.90
2023-04-09T17:04:39.034Z,27.50
2023-04-09T17:07:08.272Z,27.10
2023-04-09T17:09:37.174Z,26.50
2023-04-09T17:12:04.243Z,25.70
2023-04-09T17:14:34.482Z,24.80
2023-04-09T17:17:01.362Z,24.00
2023-04-09T17:19:30.560Z,23.30
2023-04-09T17:21:57.742Z,22.70
2023-04-09T17:24:24.576Z,22.10
2023-04-09T17:26:51.640Z,21.40
2023-04-09T17:29:21.346Z,20.90
2023-04-09T17:31:52.223Z,20.30
2023-04-09T17:34:19.402Z,20.00
2023-04-09T17:36:50.277Z,19.50
2023-04-09T17:39:17.448Z,19.00
2023-04-09T17:41:44.422Z,18.70
2023-04-09T17:44:13.363Z,18.30
2023-04-09T17:46:43.798Z,18.00
2023-04-09T17:49:13.086Z,17.70
2023-04-09T17:51:43.522Z,17.40
2023-04-09T17:54:10.250Z,17.20
2023-04-09T17:56:39.011Z,16.90
2023-04-09T17:59:06.746Z,16.70
2023-04-09T18:01:36.062Z,16.40
2023-04-09T18:04:03.047Z,16.30
2023-04-09T18:06:29.920Z,16.10
2023-04-09T18:08:56.980Z,15.90
2023-04-09T18:11:24.640Z,15.70
2023-04-09T18:13:52.056Z,15.60
2023-04-09T18:16:20.924Z,15.40
2023-04-09T18:18:50.905Z,15.20
2023-04-09T18:21:18.322Z,15.10
2023-04-09T18:23:45.233Z,14.90
2023-04-09T18:26:14.608Z,14.80
2023-04-09T18:28:42.033Z,14.60
2023-04-09T18:31:11.740Z,14.50
2023-04-09T18:33:38.471Z,14.40
2023-04-09T18:36:05.380Z,14.20
2023-04-09T18:38:32.567Z,14.10
2023-04-09T18:41:01.814Z,14.00
2023-04-09T18:43:29.306Z,13.90
2023-04-09T18:45:59.951Z,13.80
2023-04-09T18:48:26.883Z,13.70
2023-04-09T18:50:56.592Z,13.60
2023-04-09T18:53:25.272Z,13.50
2023-04-09T18:55:52.287Z,13.40
2023-04-09T18:58:19.279Z,13.30
2023-04-09T19:00:46.401Z,13.20
2023-04-09T19:03:13.561Z,13.00
2023-04-09T19:05:43.978Z,12.80
2023-04-09T19:08:11.068Z,12.60
2023-04-09T19:10:38.527Z,12.50
2023-04-09T19:13:07.989Z,12.30
2023-04-09T19:15:38.731Z,12.20
2023-04-09T19:18:08.357Z,12.10
2023-04-09T19:20:35.581Z,12.00
2023-04-09T19:23:04.930Z,12.00
2023-04-09T19:25:34.267Z,11.80
2023-04-09T19:28:01.178Z,11.80
2023-04-09T19:30:28.140Z,11.60
2023-04-09T19:32:55.149Z,11.60
2023-04-09T19:35:24.772Z,11.50
2023-04-09T19:37:51.630Z,11.40
2023-04-09T19:40:20.697Z,11.30
2023-04-09T19:42:49.962Z,11.00
2023-04-09T19:45:16.691Z,11.00
2023-04-09T19:47:47.909Z,10.90
2023-04-09T19:50:14.795Z,10.80
2023-04-09T19:52:42.112Z,10.70
2023-04-09T19:55:11.522Z,10.70
2023-04-09T19:57:38.972Z,10.60
2023-04-09T20:00:08.822Z,10.50
2023-04-09T20:02:39.476Z,10.50
2023-04-09T20:05:08.836Z,10.50
2023-04-09T20:07:35.767Z,10.40
2023-04-09T20:10:03.669Z,10.30
2023-04-09T20:12:30.439Z,10.30
2023-04-09T20:14:57.844Z,10.20
2023-04-09T20:17:25.592Z,10.20
2023-04-09T20:19:55.344Z,10.10
2023-04-09T20:22:22.815Z,10.10
2023-04-09T20:24:49.916Z,10.10
2023-04-09T20:27:19.003Z,10.00
2023-04-09T20:29:46.279Z,9.90
2023-04-09T20:32:15.089Z,9.80
2023-04-09T20:34:41.775Z,9.70
2023-04-09T20:37:08.664Z,9.50
2023-04-09T20:39:40.464Z,9.50
2023-04-09T20:42:07.249Z,9.40
2023-04-09T20:44:34.004Z,9.40
2023-04-09T20:47:00.773Z,9.40
2023-04-09T20:49:29.891Z,9.40
2023-04-09T20:51:56.819Z,9.30
2023-04-09T20:54:23.582Z,9.30
2023-04-09T20:56:52.743Z,9.20
2023-04-09T20:59:19.729Z,9.20
2023-04-09T21:01:48.901Z,9.20
2023-04-09T21:04:16.110Z,9.10
2023-04-09T21:06:45.369Z,9.10
2023-04-09T21:09:14.667Z,9.10
2023-04-09T21:11:41.548Z,9.00
2023-04-09T21:14:10.818Z,8.90
2023-04-09T21:16:37.773Z,8.90
2023-04-09T21:19:07.091Z,8.70
2023-04-09T21:21:34.848Z,8.60
2023-04-09T21:24:03.972Z,8.60
2023-04-09T21:26:44.991Z,8.60
2023-04-09T21:29:22.018Z,8.50
2023-04-09T21:31:49.371Z,8.50
2023-04-09T21:34:16.440Z,8.40
2023-04-09T21:36:45.542Z,8.20
2023-04-09T21:39:12.567Z,8.20
2023-04-09T21:41:39.542Z,8.10
2023-04-09T21:44:08.609Z,8.10
2023-04-09T21:46:40.493Z,8.10
2023-04-09T21:49:10.112Z,8.10
2023-04-09T21:51:36.832Z,8.00
2023-04-09T21:54:06.739Z,7.90
2023-04-09T21:56:36.569Z,7.80
2023-04-09T21:59:03.458Z,7.70
2023-04-09T22:01:34.390Z,7.70
2023-04-09T22:04:02.096Z,7.70
2023-04-09T22:06:33.687Z,7.70
2023-04-09T22:09:00.780Z,7.80
2023-04-09T22:11:30.628Z,7.70
2023-04-09T22:13:57.779Z,7.60
2023-04-09T22:16:25.490Z,7.60
2023-04-09T22:18:56.279Z,7.60
2023-04-09T22:21:25.895Z,7.70
2023-04-09T22:23:52.616Z,7.60
2023-04-09T22:26:19.716Z,7.60
2023-04-09T22:28:46.370Z,7.50
2023-04-09T22:31:13.100Z,7.50
2023-04-09T22:33:39.877Z,7.50
2023-04-09T22:36:09.280Z,7.50
2023-04-09T22:38:36.185Z,7.40
2023-04-09T22:41:03.016Z,7.40
2023-04-09T22:43:29.690Z,7.40
2023-04-09T22:45:58.781Z,7.30
2023-04-09T22:48:25.919Z,7.30
2023-04-09T22:50:52.648Z,7.20
2023-04-09T22:53:19.647Z,7.20
2023-04-09T22:55:51.495Z,7.20
2023-04-09T22:58:21.090Z,7.10
2023-04-09T23:00:50.546Z,7.00
2023-04-09T23:03:19.567Z,7.00
2023-04-09T23:05:48.986Z,6.90
2023-04-09T23:08:17.682Z,6.90
2023-04-09T23:10:44.363Z,6.90
2023-04-09T23:13:13.773Z,6.90
2023-04-09T23:15:41.340Z,6.90
2023-04-09T23:18:08.142Z,6.90
2023-04-09T23:20:40.256Z,6.80
2023-04-09T23:23:09.520Z,6.70
2023-04-09T23:25:36.174Z,6.70
2023-04-09T23:28:05.556Z,6.60
2023-04-09T23:30:32.215Z,6.60
2023-04-09T23:33:01.188Z,6.60
2023-04-09T23:35:33.234Z,6.50
2023-04-09T23:37:59.875Z,6.40
2023-04-09T23:40:28.985Z,6.50
2023-04-09T23:42:58.092Z,6.50
2023-04-09T23:45:24.845Z,6.40
2023-04-09T23:47:53.825Z,6.40
2023-04-09T23:50:23.029Z,6.30
2023-04-09T23:52:53.275Z,6.30
2023-04-09T23:55:22.146Z,6.20
2023-04-09T23:57:48.765Z,6.20
